Central Coast from McInnes Island to Pine Island: Past 24 Hour Conditions
Race Rocks Lightstation
03:00 PM PDT 21 April 2026| Date / Time (PDT) |
Wind(knots) | Conditions | Visibility(km) | Pressure(kPa) | Air temp(°C) | Relative humidity(%) | Dew point(°C) |
|---|---|---|---|---|---|---|---|
| 21 April 2026 | |||||||
| 15:00 | WNW 31 | N/A | N/A | 100.9 | 11 | 86 | 8 |
| 14:00 | WNW 27 | N/A | N/A | 100.9 | 11 | 82 | 8 |
| 13:00 | WNW 21 gusts 26 | N/A | N/A | 101.0 | 11 | 81 | 8 |
| 12:00 | WNW 26 gusts 31 | N/A | N/A | 100.9 | 11 | 83 | 8 |
| 11:00 | WNW 26 gusts 31 | N/A | N/A | 100.9 | 10 | 87 | 8 |
| 10:00 | WNW 25 | N/A | N/A | 100.9 | 11 | 81 | 7 |
| 9:00 | WNW 25 gusts 31 | N/A | N/A | 100.8 | 11 | 72 | 6 |
| 8:00 | WNW 27 | N/A | N/A | 100.8 | 11 | 74 | 7 |
| 7:00 | W 31 | N/A | N/A | 100.7 | 10 | 86 | 8 |
| 6:00 | W 29 | N/A | N/A | 100.8 | 10 | 87 | 8 |
| 5:00 | W 26 | N/A | N/A | 100.8 | 10 | 91 | 8 |
| 4:00 | W 28 | N/A | N/A | 100.8 | 11 | 80 | 8 |
| 3:00 | WSW 24 | N/A | N/A | 100.8 | 11 | 82 | 8 |
| 2:00 | W 21 | N/A | N/A | 100.8 | 13 | 61 | 6 |
| 1:00 | W 25 | N/A | N/A | 100.9 | 13 | 63 | 6 |
| 0:00 | W 22 | N/A | N/A | 100.8 | 11 | 77 | 8 |
| 20 April 2026 | |||||||
| 23:00 | WSW 23 | N/A | N/A | 100.8 | 11 | 81 | 8 |
| 22:00 | WSW 22 | N/A | N/A | 100.8 | 13 | 67 | 7 |
| 21:00 | W 15 | N/A | N/A | 100.8 | 15 | 54 | 6 |
| 20:00 | W 16 | N/A | N/A | 100.7 | 19 | 41 | 5 |
| 19:00 | WNW 17 | N/A | N/A | 100.8 | 18 | 45 | 6 |
| 18:00 | S 5 | N/A | N/A | 100.8 | 19 | 38 | 4 |
| 17:00 | S 3 | N/A | N/A | 100.8 | 18 | 41 | 4 |
| 16:00 | SSW 7 | N/A | N/A | 100.8 | 16 | 46 | 5 |
| 15:00 | SSE 13 | N/A | N/A | 100.8 | 17 | 49 | 6 |
If you require additional historical weather information, please visit Climate Data Online
Zoom-in to make a selection
Legend:
Pacific - South Coast Area
Another Region
Features
Colour-coded weather alerts
Learn more about weather alerting in Canada
- Date modified: